Time;durP1;ratioP1;P1;durP2;ratioP2;P2;SDS_P1;SDS_P2;PMS_P1;PMS_P2;Temp;Humidity;BMP_temperature;BMP_pressure;BME280_temperature;BME280_humidity;BME280_pressure;Samples;Min_cycle;Max_cycle;Signal;HPM_P1;HPM_P2
2021/05/22 00:00:23;;;;;;;6.13;4.38;;;10.80;99.90;;;;;;4992767;28;20418;-67
2021/05/22 00:02:51;;;;;;;4.10;3.60;;;10.70;99.90;;;;;;4992090;28;20218;-66
2021/05/22 00:05:19;;;;;;;3.13;2.83;;;10.60;99.90;;;;;;4992376;28;20888;-66
2021/05/22 00:07:46;;;;;;;5.00;3.63;;;10.60;99.90;;;;;;4992716;28;20438;-66
2021/05/22 00:10:15;;;;;;;5.70;4.07;;;10.60;99.90;;;;;;4992457;28;20389;-65
2021/05/22 00:12:44;;;;;;;4.40;3.70;;;10.60;99.90;;;;;;4992471;28;20540;-66
2021/05/22 00:15:15;;;;;;;6.00;3.95;;;10.50;99.90;;;;;;4992749;28;20426;-66
2021/05/22 00:17:43;;;;;;;7.60;3.90;;;10.40;99.90;;;;;;4975801;28;20206;-66
2021/05/22 00:20:12;;;;;;;5.63;4.83;;;10.40;99.90;;;;;;4975594;28;20428;-66
2021/05/22 00:22:41;;;;;;;5.63;4.27;;;10.30;99.90;;;;;;4992904;28;20477;-65
2021/05/22 00:25:10;;;;;;;5.05;4.55;;;10.30;99.90;;;;;;4975633;28;20947;-64
2021/05/22 00:27:38;;;;;;;5.93;4.50;;;10.30;99.90;;;;;;5007727;28;20222;-65
2021/05/22 00:30:08;;;;;;;6.17;5.03;;;10.20;99.90;;;;;;4992868;28;20407;-65
2021/05/22 00:32:37;;;;;;;6.20;4.63;;;10.20;99.90;;;;;;4992133;28;20438;-66
2021/05/22 00:35:06;;;;;;;5.05;3.30;;;10.10;99.90;;;;;;4992107;28;20487;-65
2021/05/22 00:37:34;;;;;;;5.40;3.45;;;10.00;99.90;;;;;;4992194;28;20219;-66
2021/05/22 00:40:02;;;;;;;6.82;4.03;;;10.00;99.90;;;;;;4991948;28;20199;-65
2021/05/22 00:42:29;;;;;;;7.80;4.18;;;10.00;99.90;;;;;;4991813;28;20351;-65
2021/05/22 00:45:20;;;;;;;3.10;2.60;;;9.90;99.90;;;;;;5007013;28;20199;-66
2021/05/22 00:47:50;;;;;;;2.88;2.17;;;10.00;99.90;;;;;;4986700;28;20217;-65
2021/05/22 00:50:21;;;;;;;4.10;2.72;;;10.00;99.90;;;;;;4992357;28;20196;-66
2021/05/22 00:52:49;;;;;;;6.63;2.58;;;9.90;99.90;;;;;;4991779;28;20569;-65
2021/05/22 00:55:17;;;;;;;6.70;2.90;;;10.00;99.90;;;;;;4992208;28;20199;-66
2021/05/22 00:57:48;;;;;;;3.58;3.15;;;10.00;99.90;;;;;;4992104;28;20195;-66
2021/05/22 01:00:19;;;;;;;3.65;3.35;;;10.00;99.90;;;;;;5007133;28;20209;-66
2021/05/22 01:02:48;;;;;;;3.70;2.10;;;10.00;99.90;;;;;;5007626;28;20350;-65
2021/05/22 01:05:17;;;;;;;3.63;1.97;;;10.00;99.90;;;;;;4975163;28;20198;-65
2021/05/22 01:07:47;;;;;;;2.42;1.60;;;10.00;99.90;;;;;;4975038;28;21007;-66
2021/05/22 01:10:17;;;;;;;4.18;2.85;;;9.90;99.90;;;;;;4991657;28;20182;-66
2021/05/22 01:12:48;;;;;;;3.05;2.45;;;9.90;99.90;;;;;;4991471;28;20230;-65
2021/05/22 01:15:20;;;;;;;3.63;2.30;;;9.90;99.90;;;;;;4991581;28;20229;-67
2021/05/22 01:17:50;;;;;;;6.32;3.65;;;10.00;99.90;;;;;;4991699;28;20418;-65
2021/05/22 01:20:29;;;;;;;2.10;1.90;;;10.00;99.90;;;;;;4991641;28;20558;-66
2021/05/22 01:23:01;;;;;;;2.22;1.77;;;10.00;99.90;;;;;;4991160;28;20206;-66
2021/05/22 01:25:31;;;;;;;2.13;1.85;;;9.90;99.90;;;;;;4991495;28;20179;-66
2021/05/22 01:28:01;;;;;;;2.53;1.40;;;10.00;99.90;;;;;;4973784;28;20216;-67
2021/05/22 01:30:29;;;;;;;3.65;1.50;;;10.00;99.90;;;;;;4991159;28;20179;-65
2021/05/22 01:32:56;;;;;;;2.30;1.95;;;10.00;99.90;;;;;;4991171;28;20713;-65
2021/05/22 01:35:24;;;;;;;1.83;1.50;;;10.10;99.90;;;;;;4991477;28;20183;-66
2021/05/22 01:37:52;;;;;;;3.58;2.20;;;10.10;99.90;;;;;;4991329;28;20434;-66
2021/05/22 01:40:19;;;;;;;1.63;1.45;;;10.10;99.90;;;;;;4992210;28;20562;-66
2021/05/22 01:42:48;;;;;;;3.45;2.17;;;10.10;99.90;;;;;;4994875;28;20210;-66
2021/05/22 01:45:20;;;;;;;2.70;1.88;;;10.10;99.90;;;;;;4995700;28;20513;-65
2021/05/22 01:47:50;;;;;;;3.00;1.55;;;10.10;99.90;;;;;;4978397;28;20264;-66
2021/05/22 01:50:20;;;;;;;2.07;1.20;;;10.10;99.90;;;;;;4978356;28;20191;-66
2021/05/22 01:52:51;;;;;;;3.15;1.77;;;10.10;99.90;;;;;;4978141;28;20466;-66
2021/05/22 01:55:20;;;;;;;1.67;1.57;;;10.10;99.90;;;;;;4978173;28;20382;-66
2021/05/22 01:57:49;;;;;;;4.40;1.33;;;10.20;99.90;;;;;;4995339;28;20452;-66
2021/05/22 02:00:18;;;;;;;3.67;1.20;;;10.20;99.90;;;;;;4994799;28;20404;-66
2021/05/22 02:02:54;;;;;;;3.70;1.42;;;10.30;99.90;;;;;;4995727;28;20563;-66
2021/05/22 02:05:22;;;;;;;2.83;1.27;;;10.30;99.90;;;;;;4995633;28;20190;-66
2021/05/22 02:07:52;;;;;;;8.23;1.40;;;10.20;99.90;;;;;;4996121;28;20204;-66
2021/05/22 02:10:20;;;;;;;3.63;1.67;;;10.30;99.90;;;;;;4995865;28;20557;-66
2021/05/22 02:12:49;;;;;;;1.73;1.40;;;10.30;99.90;;;;;;4995133;28;20214;-66
2021/05/22 02:15:18;;;;;;;5.80;1.77;;;10.40;99.90;;;;;;4994800;28;20410;-66
2021/05/22 02:17:47;;;;;;;2.05;1.50;;;10.40;99.90;;;;;;4994590;28;20406;-67
2021/05/22 02:20:17;;;;;;;1.53;1.43;;;10.40;99.90;;;;;;4994657;28;20190;-66
2021/05/22 02:22:47;;;;;;;2.83;1.50;;;10.40;99.90;;;;;;4994466;28;20769;-66
2021/05/22 02:25:16;;;;;;;3.92;1.45;;;10.40;99.90;;;;;;4994697;28;20805;-66
2021/05/22 02:27:46;;;;;;;2.47;1.25;;;10.30;99.90;;;;;;5009858;23;20191;-67
2021/05/22 02:30:17;;;;;;;3.43;1.33;;;10.40;99.90;;;;;;5013739;28;20202;-66
2021/05/22 02:32:48;;;;;;;4.13;1.90;;;10.40;99.90;;;;;;5015097;28;20447;-68
2021/05/22 02:35:19;;;;;;;6.32;1.83;;;10.40;99.90;;;;;;5015078;28;20967;-67
2021/05/22 02:37:49;;;;;;;2.45;1.73;;;10.40;99.90;;;;;;5015152;28;20186;-66
2021/05/22 02:40:20;;;;;;;5.90;2.08;;;10.40;99.90;;;;;;5015721;28;20201;-67
2021/05/22 02:42:54;;;;;;;2.17;1.38;;;10.40;99.90;;;;;;5030778;28;20224;-66
2021/05/22 02:45:25;;;;;;;1.20;1.10;;;10.40;99.90;;;;;;5015006;28;20190;-67
2021/05/22 02:47:56;;;;;;;1.33;1.10;;;10.50;99.90;;;;;;5014205;28;20587;-67
2021/05/22 02:50:24;;;;;;;2.60;1.42;;;10.60;99.90;;;;;;5014207;28;20515;-65
2021/05/22 02:52:53;;;;;;;1.90;1.55;;;10.50;99.90;;;;;;5013359;28;20714;-66
2021/05/22 02:55:21;;;;;;;4.00;1.53;;;10.50;99.90;;;;;;5014146;28;20373;-67
2021/05/22 02:57:51;;;;;;;3.70;1.30;;;10.50;99.90;;;;;;5014034;28;20988;-67
2021/05/22 03:00:20;;;;;;;1.85;1.70;;;10.50;99.90;;;;;;5015361;28;20945;-67
2021/05/22 03:02:50;;;;;;;3.15;1.58;;;10.50;99.90;;;;;;5015611;28;20695;-68
2021/05/22 03:05:18;;;;;;;1.83;1.37;;;10.50;99.90;;;;;;5016069;28;20576;-68
2021/05/22 03:07:45;;;;;;;2.15;1.35;;;10.60;99.90;;;;;;5016571;28;20803;-68
2021/05/22 03:10:16;;;;;;;1.30;1.10;;;10.60;99.90;;;;;;5016987;28;20714;-68
2021/05/22 03:12:44;;;;;;;2.43;1.70;;;10.50;99.90;;;;;;5016493;28;20908;-68
2021/05/22 03:15:12;;;;;;;1.33;1.00;;;10.60;99.90;;;;;;5016064;28;20401;-65
2021/05/22 03:17:40;;;;;;;2.17;1.27;;;10.60;99.90;;;;;;5016755;28;20517;-66
2021/05/22 03:20:09;;;;;;;8.87;1.53;;;10.60;99.90;;;;;;5016746;28;20906;-68
2021/05/22 03:22:37;;;;;;;1.30;1.20;;;10.70;99.90;;;;;;5017188;28;20440;-67
2021/05/22 03:25:06;;;;;;;1.83;1.50;;;10.80;99.90;;;;;;5017447;28;20884;-67
2021/05/22 03:27:36;;;;;;;2.13;1.38;;;10.90;99.90;;;;;;5000272;28;20423;-67
2021/05/22 03:30:05;;;;;;;3.60;1.55;;;10.90;99.90;;;;;;5017517;28;20200;-66
2021/05/22 03:32:33;;;;;;;3.90;1.67;;;11.00;99.90;;;;;;5016833;28;20284;-67
2021/05/22 03:35:00;;;;;;;2.13;1.10;;;11.10;99.90;;;;;;5016383;28;20425;-67
2021/05/22 03:37:29;;;;;;;1.97;1.43;;;11.40;99.90;;;;;;5032132;28;20443;-67
2021/05/22 03:39:57;;;;;;;1.93;1.00;;;11.80;99.90;;;;;;5032416;28;20437;-67
2021/05/22 03:42:24;;;;;;;1.80;1.50;;;12.60;99.90;;;;;;5016314;28;20447;-67
2021/05/22 03:44:53;;;;;;;2.00;1.50;;;13.50;99.90;;;;;;5014509;28;20493;-67
2021/05/22 03:47:20;;;;;;;1.83;1.40;;;14.30;99.90;;;;;;5014492;28;20467;-67
2021/05/22 03:49:48;;;;;;;1.80;1.37;;;14.90;99.90;;;;;;5013719;28;20441;-65
2021/05/22 03:52:15;;;;;;;1.30;1.20;;;15.00;99.90;;;;;;5013741;28;20425;-66
2021/05/22 03:54:45;;;;;;;1.93;1.50;;;14.40;99.90;;;;;;5013720;28;20421;-67
2021/05/22 03:57:13;;;;;;;1.90;1.37;;;13.90;99.90;;;;;;5013613;28;20425;-67
2021/05/22 03:59:41;;;;;;;1.50;1.10;;;13.50;99.90;;;;;;5013483;28;20425;-66
2021/05/22 04:02:08;;;;;;;2.10;1.30;;;13.00;99.90;;;;;;5012953;28;20396;-66
2021/05/22 04:04:36;;;;;;;3.23;1.57;;;12.80;99.90;;;;;;5012648;28;20847;-66
2021/05/22 04:07:03;;;;;;;2.07;1.47;;;12.60;99.90;;;;;;4995663;28;20417;-66
2021/05/22 04:09:31;;;;;;;1.63;1.37;;;12.50;99.90;;;;;;5014680;28;20413;-67
2021/05/22 04:12:00;;;;;;;1.80;1.40;;;12.40;99.90;;;;;;5015330;28;20421;-66
2021/05/22 04:14:27;;;;;;;1.73;1.10;;;12.40;99.90;;;;;;5015904;28;20929;-67
2021/05/22 04:16:55;;;;;;;1.40;1.10;;;12.40;99.90;;;;;;5015939;28;20413;-65
2021/05/22 04:19:23;;;;;;;1.70;1.43;;;12.50;99.90;;;;;;5015720;28;20512;-67
2021/05/22 04:21:51;;;;;;;1.30;1.20;;;12.50;99.90;;;;;;5031055;28;20565;-67
2021/05/22 04:24:19;;;;;;;5.47;1.73;;;12.40;99.90;;;;;;5015107;28;20435;-66
2021/05/22 04:26:46;;;;;;;1.80;1.30;;;12.50;99.90;;;;;;5015188;28;20429;-67
2021/05/22 04:29:15;;;;;;;2.20;1.33;;;12.60;99.90;;;;;;5015028;28;20447;-67
2021/05/22 04:31:42;;;;;;;5.40;1.90;;;12.60;99.90;;;;;;5015472;28;20760;-66
2021/05/22 04:34:10;;;;;;;1.63;1.50;;;12.70;99.90;;;;;;5015340;28;20820;-67
2021/05/22 04:36:39;;;;;;;3.50;2.30;;;12.80;99.90;;;;;;5016077;28;20780;-67
2021/05/22 04:39:07;;;;;;;3.23;1.37;;;12.70;99.90;;;;;;5018821;28;20825;-67
2021/05/22 04:41:34;;;;;;;4.17;1.70;;;12.70;99.90;;;;;;5013338;28;20395;-67
2021/05/22 04:44:02;;;;;;;2.77;2.00;;;12.70;99.90;;;;;;5011848;28;20439;-67
2021/05/22 04:46:31;;;;;;;1.90;1.70;;;12.80;99.90;;;;;;5013509;28;20417;-67
2021/05/22 04:48:59;;;;;;;2.60;1.60;;;13.00;99.90;;;;;;5029976;28;20464;-67
2021/05/22 04:51:27;;;;;;;2.37;1.60;;;13.10;99.90;;;;;;5014921;28;20750;-67
2021/05/22 04:54:02;;;;;;;3.00;1.80;;;13.50;99.90;;;;;;5015064;28;20445;-67
2021/05/22 04:56:30;;;;;;;5.13;1.70;;;13.90;99.90;;;;;;5013619;28;20809;-66
2021/05/22 04:58:58;;;;;;;3.77;1.70;;;14.40;99.90;;;;;;5014462;28;20767;-66
2021/05/22 05:01:26;;;;;;;6.70;2.00;;;14.40;99.90;;;;;;5014332;28;20427;-67
2021/05/22 05:03:55;;;;;;;2.37;1.40;;;14.40;99.90;;;;;;5014665;28;20465;-68
2021/05/22 05:06:23;;;;;;;1.63;1.53;;;14.30;99.90;;;;;;5014834;28;20396;-68
2021/05/22 05:08:50;;;;;;;3.10;2.20;;;14.20;99.90;;;;;;5012192;28;20491;-66
2021/05/22 05:11:18;;;;;;;2.80;1.53;;;14.10;99.90;;;;;;5027077;28;20933;-67
2021/05/22 05:13:45;;;;;;;4.73;1.50;;;14.10;99.90;;;;;;5011983;28;20517;-66
2021/05/22 05:16:14;;;;;;;2.03;1.53;;;14.10;99.90;;;;;;5011998;28;20400;-67
2021/05/22 05:18:42;;;;;;;2.07;1.50;;;14.10;99.90;;;;;;5011973;28;20749;-67
2021/05/22 05:21:11;;;;;;;1.73;1.60;;;14.30;99.90;;;;;;5026668;28;20523;-67
2021/05/22 05:23:39;;;;;;;2.10;1.40;;;14.60;99.90;;;;;;5011472;28;20419;-67
2021/05/22 05:26:07;;;;;;;2.50;1.60;;;15.20;99.90;;;;;;5011477;28;20395;-68
2021/05/22 05:28:34;;;;;;;1.83;1.43;;;15.60;99.90;;;;;;4994010;28;20441;-68
2021/05/22 05:31:03;;;;;;;2.33;1.37;;;15.50;99.90;;;;;;5011639;28;20409;-68
2021/05/22 05:33:30;;;;;;;2.23;1.77;;;15.30;99.90;;;;;;5011460;28;20424;-67
2021/05/22 05:35:58;;;;;;;1.73;1.43;;;14.90;99.90;;;;;;5011017;28;20896;-67
2021/05/22 05:38:31;;;;;;;1.57;1.23;;;14.80;99.90;;;;;;4993862;28;20437;-68
2021/05/22 05:40:59;;;;;;;1.77;1.20;;;14.80;99.90;;;;;;5011074;28;20422;-67
2021/05/22 05:43:27;;;;;;;1.57;1.10;;;14.60;99.90;;;;;;5011149;28;20453;-67
2021/05/22 05:45:55;;;;;;;2.50;1.90;;;14.50;99.90;;;;;;5011105;28;20435;-67
2021/05/22 05:48:22;;;;;;;3.27;1.67;;;14.20;99.90;;;;;;5011142;28;20425;-68
2021/05/22 05:50:50;;;;;;;1.83;1.03;;;13.90;99.90;;;;;;5011004;28;20421;-68
2021/05/22 05:53:18;;;;;;;2.03;1.33;;;13.70;99.90;;;;;;5011253;28;20884;-68
2021/05/22 05:55:47;;;;;;;1.83;1.20;;;13.60;99.90;;;;;;5011074;28;20491;-68
2021/05/22 05:58:16;;;;;;;1.17;1.07;;;13.40;99.90;;;;;;5011560;28;20884;-68
2021/05/22 06:00:43;;;;;;;1.80;1.20;;;13.20;99.90;;;;;;5010743;28;20468;-68
2021/05/22 06:03:11;;;;;;;2.97;1.10;;;12.80;99.90;;;;;;5011806;28;20459;-66
2021/05/22 06:05:39;;;;;;;1.50;0.90;;;12.70;99.90;;;;;;4993797;28;20513;-67
2021/05/22 06:08:07;;;;;;;2.20;1.07;;;12.50;99.90;;;;;;5010822;28;20402;-65
2021/05/22 06:10:34;;;;;;;1.20;0.80;;;12.30;99.90;;;;;;5011442;28;20433;-65
2021/05/22 06:13:03;;;;;;;2.00;0.80;;;12.50;99.90;;;;;;5013076;28;20472;-67
2021/05/22 06:15:33;;;;;;;1.83;1.20;;;12.50;99.90;;;;;;5017368;28;20666;-68
2021/05/22 06:18:00;;;;;;;3.00;1.20;;;12.60;99.90;;;;;;5015819;28;20409;-67
2021/05/22 06:20:28;;;;;;;1.10;0.90;;;12.70;99.90;;;;;;5034359;28;20439;-67
2021/05/22 06:22:56;;;;;;;1.47;0.83;;;13.00;99.90;;;;;;5018592;28;20556;-66
2021/05/22 06:25:24;;;;;;;2.23;0.90;;;13.10;99.90;;;;;;5017456;28;20460;-67
2021/05/22 06:27:51;;;;;;;2.07;1.03;;;13.20;99.90;;;;;;5019865;28;20492;-67
2021/05/22 06:30:21;;;;;;;2.37;1.63;;;13.00;99.90;;;;;;5019617;28;20413;-67
2021/05/22 06:32:51;;;;;;;1.93;1.20;;;12.90;99.90;;;;;;5019436;28;20514;-68
2021/05/22 06:35:19;;;;;;;2.23;1.20;;;12.60;99.90;;;;;;5021451;28;20409;-67
2021/05/22 06:37:47;;;;;;;1.23;0.70;;;12.60;99.90;;;;;;5019223;28;20842;-66
2021/05/22 06:40:15;;;;;;;1.60;1.30;;;12.80;99.90;;;;;;5020160;28;20395;-66
2021/05/22 06:42:43;;;;;;;2.70;1.50;;;13.10;99.90;;;;;;5018304;28;20444;-67
2021/05/22 06:45:15;;;;;;;1.40;1.07;;;13.30;99.90;;;;;;5001015;28;20460;-67
2021/05/22 06:47:48;;;;;;;1.13;0.87;;;13.70;99.90;;;;;;5018666;28;20407;-67
2021/05/22 06:50:16;;;;;;;1.10;0.87;;;14.20;99.90;;;;;;5017286;28;20936;-68
2021/05/22 06:52:43;;;;;;;3.00;1.50;;;14.40;99.90;;;;;;5017586;28;20518;-68
2021/05/22 06:55:12;;;;;;;1.77;1.37;;;14.60;99.90;;;;;;5016034;28;20867;-68
2021/05/22 06:57:39;;;;;;;1.57;0.97;;;14.90;99.90;;;;;;5016550;28;20424;-67
2021/05/22 07:00:08;;;;;;;1.80;1.50;;;14.80;99.90;;;;;;5017288;28;20909;-67
2021/05/22 07:02:36;;;;;;;2.20;1.27;;;14.90;99.90;;;;;;5031807;28;20469;-68
2021/05/22 07:05:05;;;;;;;1.57;1.23;;;14.90;99.90;;;;;;5015629;28;20603;-67
2021/05/22 07:07:35;;;;;;;1.97;1.20;;;15.10;99.90;;;;;;5014486;28;20403;-68
2021/05/22 07:10:03;;;;;;;2.20;1.30;;;15.30;99.90;;;;;;5013823;28;20429;-68
2021/05/22 07:12:31;;;;;;;5.17;1.30;;;15.40;99.90;;;;;;5013911;28;20986;-67
2021/05/22 07:14:59;;;;;;;1.30;1.00;;;15.40;99.90;;;;;;5013698;28;20417;-67
2021/05/22 07:17:27;;;;;;;1.23;1.10;;;15.70;99.90;;;;;;5013964;28;20403;-67
2021/05/22 07:19:55;;;;;;;2.20;1.50;;;15.80;99.90;;;;;;5013798;28;20399;-67
2021/05/22 07:22:24;;;;;;;1.90;1.30;;;15.60;99.90;;;;;;5013093;28;20821;-68
2021/05/22 07:24:52;;;;;;;1.73;1.27;;;15.70;99.90;;;;;;5013170;28;20519;-68
2021/05/22 07:27:20;;;;;;;2.23;1.13;;;16.00;99.90;;;;;;5013136;28;20417;-68
2021/05/22 07:29:50;;;;;;;1.20;0.97;;;16.30;99.90;;;;;;5013006;28;20448;-67
2021/05/22 07:32:18;;;;;;;2.27;1.80;;;16.40;99.90;;;;;;4995540;28;20432;-66
2021/05/22 07:34:46;;;;;;;4.50;1.40;;;16.10;99.90;;;;;;5013712;28;20814;-67
2021/05/22 07:37:13;;;;;;;1.83;1.00;;;15.90;99.90;;;;;;5012839;28;20384;-68
2021/05/22 07:39:42;;;;;;;2.23;1.20;;;15.40;99.90;;;;;;5012719;28;20778;-67
2021/05/22 07:42:10;;;;;;;1.90;0.93;;;15.30;99.90;;;;;;5013720;28;20470;-67
2021/05/22 07:44:38;;;;;;;1.30;0.87;;;15.20;99.90;;;;;;5013936;28;20427;-68
2021/05/22 07:47:06;;;;;;;1.30;1.10;;;15.40;99.90;;;;;;5015132;28;20464;-67
2021/05/22 07:49:37;;;;;;;1.70;0.80;;;15.70;99.90;;;;;;4995926;28;20750;-67
2021/05/22 07:52:09;;;;;;;1.10;0.90;;;15.90;99.90;;;;;;5012634;28;20428;-67
2021/05/22 07:54:38;;;;;;;1.20;1.10;;;15.90;99.90;;;;;;5012748;28;20429;-68
2021/05/22 07:57:09;;;;;;;1.97;0.90;;;16.20;99.90;;;;;;5012782;28;20417;-67
2021/05/22 07:59:38;;;;;;;1.63;1.20;;;16.60;99.90;;;;;;5012652;28;20441;-67
2021/05/22 08:02:07;;;;;;;1.83;1.03;;;16.80;99.90;;;;;;5012362;28;20383;-67
2021/05/22 08:04:35;;;;;;;1.87;0.93;;;16.90;99.90;;;;;;5012503;28;20836;-66
2021/05/22 08:07:03;;;;;;;1.47;0.80;;;16.40;99.90;;;;;;5012469;28;20429;-68
2021/05/22 08:09:31;;;;;;;5.43;1.77;;;16.30;99.90;;;;;;4994831;28;20462;-66
2021/05/22 08:11:59;;;;;;;1.67;1.23;;;16.30;99.90;;;;;;5012081;28;20460;-67
2021/05/22 08:14:27;;;;;;;3.80;0.87;;;16.50;99.90;;;;;;5012090;28;20415;-67
2021/05/22 08:16:55;;;;;;;1.00;0.80;;;16.80;99.90;;;;;;5012143;28;20458;-68
2021/05/22 08:19:23;;;;;;;2.33;1.00;;;17.40;99.90;;;;;;5012494;28;20384;-68
2021/05/22 08:21:51;;;;;;;1.33;0.93;;;17.80;99.90;;;;;;5011767;28;20396;-67
2021/05/22 08:24:19;;;;;;;1.57;0.93;;;17.60;99.90;;;;;;5011900;28;20419;-68
2021/05/22 08:26:46;;;;;;;2.87;1.10;;;17.00;99.90;;;;;;5012119;28;20429;-69
2021/05/22 08:29:35;;;;;;;1.93;1.00;;;17.10;99.90;;;;;;5020890;23;20513;-67
2021/05/22 08:32:03;;;;;;;2.10;0.90;;;17.30;99.90;;;;;;5031060;28;20405;-68
2021/05/22 08:34:33;;;;;;;2.50;1.20;;;17.40;99.90;;;;;;5031004;28;20429;-66
2021/05/22 08:37:00;;;;;;;1.40;0.80;;;17.10;99.90;;;;;;5031124;28;20932;-68
2021/05/22 08:39:28;;;;;;;1.57;1.00;;;16.90;99.90;;;;;;5031162;28;20435;-68
2021/05/22 08:41:56;;;;;;;2.80;1.10;;;16.60;99.90;;;;;;5031181;28;20396;-68
2021/05/22 08:44:24;;;;;;;1.70;1.10;;;16.70;99.90;;;;;;5031226;28;20436;-68
2021/05/22 08:46:52;;;;;;;3.87;0.90;;;16.80;99.90;;;;;;5031273;28;20812;-67
2021/05/22 08:49:20;;;;;;;1.60;0.70;;;16.70;99.90;;;;;;5030922;28;20423;-67
2021/05/22 08:51:48;;;;;;;2.17;0.80;;;16.50;99.90;;;;;;5030729;28;20395;-68
2021/05/22 08:54:16;;;;;;;3.10;0.73;;;16.60;99.90;;;;;;5013377;28;20462;-68
2021/05/22 08:56:43;;;;;;;2.80;0.90;;;16.70;99.90;;;;;;5031485;28;20798;-68
2021/05/22 08:59:12;;;;;;;2.50;0.93;;;16.80;99.90;;;;;;5031105;28;20398;-67
2021/05/22 09:01:39;;;;;;;1.90;0.60;;;17.00;99.90;;;;;;5031079;28;20420;-68
2021/05/22 09:04:08;;;;;;;1.27;0.70;;;17.20;99.90;;;;;;5030747;28;21058;-69
2021/05/22 09:06:56;;;;;;;2.90;1.00;;;17.60;99.90;;;;;;5012840;28;20449;-67
2021/05/22 09:09:38;;;;;;;2.50;0.80;;;17.90;99.90;;;;;;5030832;28;20416;-67
2021/05/22 09:12:06;;;;;;;1.13;0.80;;;18.10;99.90;;;;;;5030469;28;20884;-68
2021/05/22 09:14:45;;;;;;;3.53;0.67;;;18.40;99.90;;;;;;5030470;28;20447;-66
2021/05/22 09:17:14;;;;;;;3.83;0.60;;;18.60;99.90;;;;;;5030972;28;21253;-67
2021/05/22 09:19:43;;;;;;;1.67;1.00;;;18.40;99.90;;;;;;5030866;28;20789;-67
2021/05/22 09:22:19;;;;;;;2.17;1.40;;;18.50;99.90;;;;;;5030614;28;20406;-66
2021/05/22 09:25:00;;;;;;;1.17;0.70;;;19.00;99.90;;;;;;5030832;28;20856;-67
2021/05/22 09:27:32;;;;;;;2.23;0.60;;;19.40;99.90;;;;;;5030935;28;20970;-66
2021/05/22 09:30:06;;;;;;;2.67;0.97;;;19.20;99.90;;;;;;5030643;28;20780;-68
2021/05/22 09:32:34;;;;;;;1.97;1.10;;;18.90;99.90;;;;;;5030685;28;20422;-67
2021/05/22 09:35:03;;;;;;;2.07;0.80;;;18.70;99.90;;;;;;5030469;28;20401;-67
2021/05/22 09:37:39;;;;;;;1.57;0.80;;;18.40;99.90;;;;;;5030368;28;20417;-68
2021/05/22 09:40:08;;;;;;;2.37;0.90;;;18.20;99.90;;;;;;5030687;28;20435;-68
2021/05/22 09:42:41;;;;;;;2.70;0.70;;;17.90;99.90;;;;;;5012138;28;21214;-68
2021/05/22 09:45:23;;;;;;;3.17;1.40;;;17.50;99.90;;;;;;5030111;28;20469;-67
2021/05/22 09:47:51;;;;;;;1.90;0.80;;;17.70;99.90;;;;;;5030290;28;20428;-66
2021/05/22 09:50:31;;;;;;;1.93;0.93;;;18.00;99.90;;;;;;5030722;28;20464;-67
2021/05/22 09:53:00;;;;;;;4.70;0.97;;;18.40;99.90;;;;;;5030688;28;20462;-67
2021/05/22 09:55:29;;;;;;;1.80;0.80;;;18.90;99.90;;;;;;5031494;28;20496;-68
2021/05/22 09:57:57;;;;;;;0.90;0.60;;;19.10;99.90;;;;;;5031902;28;20424;-66
2021/05/22 10:00:27;;;;;;;5.47;1.30;;;19.30;99.90;;;;;;5032113;28;20435;-67
2021/05/22 10:02:57;;;;;;;3.10;1.00;;;19.00;99.90;;;;;;5034409;28;20940;-67
2021/05/22 10:05:28;;;;;;;1.17;0.70;;;19.10;99.90;;;;;;5034046;28;20469;-68
2021/05/22 10:07:56;;;;;;;2.33;0.90;;;19.00;99.90;;;;;;5034074;28;20526;-67
2021/05/22 10:10:38;;;;;;;9.20;1.20;;;18.90;99.90;;;;;;5034171;28;20498;-69
2021/05/22 10:13:07;;;;;;;4.30;0.97;;;18.90;99.90;;;;;;5033711;28;20514;-67
2021/05/22 10:15:35;;;;;;;1.27;0.93;;;18.70;99.90;;;;;;5015952;28;20452;-68
2021/05/22 10:18:03;;;;;;;1.20;0.73;;;18.80;99.90;;;;;;5034016;28;20522;-69
2021/05/22 10:20:32;;;;;;;1.80;0.90;;;18.60;99.90;;;;;;5033864;28;20405;-68
2021/05/22 10:23:00;;;;;;;1.67;1.03;;;18.60;99.90;;;;;;5015941;28;20462;-68
2021/05/22 10:25:28;;;;;;;2.33;0.80;;;18.60;99.90;;;;;;5033444;28;20434;-67
2021/05/22 10:27:56;;;;;;;1.50;0.90;;;18.20;99.90;;;;;;5033557;28;20824;-67
2021/05/22 10:30:25;;;;;;;1.40;0.83;;;17.40;99.90;;;;;;5033592;28;20455;-67
2021/05/22 10:32:59;;;;;;;3.13;0.90;;;15.90;99.90;;;;;;5033328;28;20494;-67
2021/05/22 10:35:27;;;;;;;0.93;0.63;;;14.90;99.90;;;;;;5033442;28;20419;-65
2021/05/22 10:37:57;;;;;;;1.40;0.93;;;14.40;99.90;;;;;;5033633;28;20809;-65
2021/05/22 10:40:43;;;;;;;1.73;0.93;;;14.00;99.90;;;;;;5015878;28;20527;-68
2021/05/22 10:43:11;;;;;;;7.23;0.80;;;14.00;99.90;;;;;;5033678;28;20462;-68
2021/05/22 10:45:40;;;;;;;1.20;0.80;;;14.20;99.90;;;;;;5033543;28;20502;-69
2021/05/22 10:48:29;;;;;;;1.77;0.70;;;14.50;99.90;;;;;;5033677;28;20427;-66
2021/05/22 10:50:59;;;;;;;3.10;1.27;;;15.10;99.90;;;;;;5015484;28;20429;-66
2021/05/22 10:53:29;;;;;;;1.10;0.83;;;15.20;99.90;;;;;;5033525;28;20430;-65
2021/05/22 10:56:09;;;;;;;1.20;0.80;;;15.40;99.90;;;;;;5015482;28;20441;-66
2021/05/22 10:58:38;;;;;;;1.37;1.00;;;15.50;99.90;;;;;;5033474;28;20394;-67
2021/05/22 11:01:35;;;;;;;1.93;1.07;;;15.70;99.90;;;;;;5033080;28;20395;-66
2021/05/22 11:04:27;;;;;;;1.70;1.10;;;15.90;99.90;;;;;;5033064;28;20454;-68
2021/05/22 11:06:57;;;;;;;1.10;0.80;;;16.10;99.90;;;;;;5033275;28;20905;-67
2021/05/22 11:09:47;;;;;;;1.57;1.33;;;16.20;99.90;;;;;;5033170;28;20497;-65
2021/05/22 11:12:42;;;;;;;1.87;1.10;;;16.30;99.90;;;;;;5015156;28;20442;-67
2021/05/22 11:15:44;;;;;;;1.23;0.90;;;16.70;99.90;;;;;;5033229;28;20432;-67
2021/05/22 11:18:12;;;;;;;1.93;1.10;;;17.00;99.90;;;;;;5033403;28;20389;-66
2021/05/22 11:20:43;;;;;;;3.07;0.83;;;17.30;99.90;;;;;;5032921;28;20398;-66
2021/05/22 11:23:12;;;;;;;3.90;1.90;;;17.60;99.90;;;;;;5033482;28;20531;-67
2021/05/22 11:25:52;;;;;;;1.73;0.80;;;17.60;99.90;;;;;;5033188;28;20973;-67
2021/05/22 11:28:21;;;;;;;15.63;1.30;;;17.20;99.90;;;;;;5032962;28;20439;-67
2021/05/22 11:30:54;;;;;;;1.70;1.57;;;16.70;99.90;;;;;;5033012;28;20399;-67
2021/05/22 11:33:32;;;;;;;2.80;2.17;;;15.60;99.90;;;;;;5032994;28;20411;-67
2021/05/22 11:36:13;;;;;;;2.50;0.93;;;15.10;99.90;;;;;;5032840;28;20405;-66
2021/05/22 11:38:47;;;;;;;3.53;2.27;;;15.20;99.90;;;;;;5032674;28;20990;-67
2021/05/22 11:41:29;;;;;;;1.83;0.80;;;15.20;99.90;;;;;;5032682;28;20744;-67
2021/05/22 11:44:15;;;;;;;1.43;0.90;;;15.20;99.90;;;;;;5032700;28;20498;-67
2021/05/22 11:46:51;;;;;;;2.30;1.13;;;15.70;99.90;;;;;;5032134;28;20490;-69
2021/05/22 11:49:32;;;;;;;1.57;1.07;;;16.00;99.90;;;;;;5014598;28;20450;-68
2021/05/22 11:52:00;;;;;;;0.90;0.70;;;16.60;99.90;;;;;;5032072;28;20523;-68
2021/05/22 11:54:33;;;;;;;5.90;1.27;;;17.10;99.90;;;;;;5032089;28;20413;-67
2021/05/22 11:57:01;;;;;;;1.63;1.10;;;17.10;99.90;;;;;;5032100;28;20948;-68
2021/05/22 11:59:38;;;;;;;2.73;0.80;;;17.40;99.90;;;;;;5032232;28;20498;-68
2021/05/22 12:02:07;;;;;;;1.20;0.70;;;17.30;99.90;;;;;;5031629;28;20404;-68
2021/05/22 12:04:39;;;;;;;2.60;0.70;;;17.20;99.90;;;;;;5031833;28;20390;-68
2021/05/22 12:07:06;;;;;;;1.77;0.80;;;17.00;99.90;;;;;;5032154;28;20434;-69
2021/05/22 12:09:37;;;;;;;1.43;0.80;;;16.90;99.90;;;;;;5032421;28;20936;-70
2021/05/22 12:12:08;;;;;;;1.50;0.80;;;16.70;99.90;;;;;;5031672;28;20398;-67
2021/05/22 12:14:38;;;;;;;1.77;0.80;;;16.60;99.90;;;;;;5032166;28;20399;-67
2021/05/22 12:17:07;;;;;;;2.37;0.80;;;16.90;99.90;;;;;;5031789;28;20435;-68
2021/05/22 12:19:36;;;;;;;1.00;0.60;;;17.40;99.90;;;;;;5032240;28;20746;-67
2021/05/22 12:22:09;;;;;;;1.00;0.60;;;17.90;99.90;;;;;;5031074;28;20426;-67
2021/05/22 12:24:38;;;;;;;2.17;0.80;;;18.80;99.90;;;;;;5030819;28;20460;-66
2021/05/22 12:27:07;;;;;;;1.50;0.77;;;19.00;99.90;;;;;;5031339;28;20446;-67
2021/05/22 12:29:35;;;;;;;1.70;1.10;;;18.70;99.90;;;;;;5031605;28;20403;-66
2021/05/22 12:32:04;;;;;;;1.93;1.40;;;18.20;99.90;;;;;;5031328;28;20799;-66
2021/05/22 12:34:34;;;;;;;3.27;1.13;;;17.70;99.90;;;;;;5031058;28;20407;-68
2021/05/22 12:37:04;;;;;;;1.77;1.00;;;17.50;99.90;;;;;;5031247;28;20793;-68
2021/05/22 12:39:40;;;;;;;1.77;1.00;;;17.30;99.90;;;;;;5031215;28;20501;-69
2021/05/22 12:42:16;;;;;;;1.00;0.80;;;17.50;99.90;;;;;;5030963;28;20824;-67
2021/05/22 12:44:43;;;;;;;1.13;0.77;;;18.20;99.90;;;;;;5031176;28;20974;-68
2021/05/22 12:47:13;;;;;;;1.20;0.60;;;18.10;99.90;;;;;;5030775;28;20434;-67
2021/05/22 12:49:55;;;;;;;1.30;0.90;;;17.90;99.90;;;;;;5031198;28;20390;-67
2021/05/22 12:52:23;;;;;;;1.37;0.90;;;17.80;99.90;;;;;;5030548;28;20453;-67
2021/05/22 12:54:51;;;;;;;3.30;0.93;;;18.00;99.90;;;;;;5030920;28;20423;-68
2021/05/22 12:57:20;;;;;;;1.47;0.60;;;18.10;99.90;;;;;;5031013;28;20391;-68
2021/05/22 13:00:07;;;;;;;1.50;0.90;;;18.10;99.90;;;;;;5030729;28;20835;-67
2021/05/22 13:02:37;;;;;;;2.70;0.63;;;18.10;99.90;;;;;;5030681;28;20422;-68